sensor_id;sensor_type;location;lat;lon;timestamp;pressure;altitude;pressure_sealevel;temperature;humidity
53635;BME280;39542;-34.932;138.594;2023-09-19T00:00:10;100615.37;;;19.69;62.68
53635;BME280;39542;-34.932;138.594;2023-09-19T00:00:44;100620.85;;;19.70;62.64
53635;BME280;39542;-34.932;138.594;2023-09-19T00:01:19;100619.18;;;19.71;62.67
53635;BME280;39542;-34.932;138.594;2023-09-19T00:01:53;100616.78;;;19.71;62.68
53635;BME280;39542;-34.932;138.594;2023-09-19T00:02:27;100616.69;;;19.70;62.66
53635;BME280;39542;-34.932;138.594;2023-09-19T00:03:02;100617.28;;;19.71;62.64
53635;BME280;39542;-34.932;138.594;2023-09-19T00:03:37;100620.61;;;19.70;62.65
53635;BME280;39542;-34.932;138.594;2023-09-19T00:04:11;100621.34;;;19.71;62.61
53635;BME280;39542;-34.932;138.594;2023-09-19T00:04:46;100615.42;;;19.72;62.64
53635;BME280;39542;-34.932;138.594;2023-09-19T00:05:21;100619.64;;;19.72;62.64
53635;BME280;39542;-34.932;138.594;2023-09-19T00:05:55;100617.43;;;19.72;62.61
53635;BME280;39542;-34.932;138.594;2023-09-19T00:06:32;100618.21;;;19.72;62.64
53635;BME280;39542;-34.932;138.594;2023-09-19T00:07:07;100619.99;;;19.73;62.61
53635;BME280;39542;-34.932;138.594;2023-09-19T00:07:42;100619.48;;;19.73;62.55
53635;BME280;39542;-34.932;138.594;2023-09-19T00:08:17;100617.08;;;19.73;62.65
53635;BME280;39542;-34.932;138.594;2023-09-19T00:08:51;100616.20;;;19.74;62.69
53635;BME280;39542;-34.932;138.594;2023-09-19T00:09:26;100615.10;;;19.74;62.64
53635;BME280;39542;-34.932;138.594;2023-09-19T00:10:00;100615.15;;;19.75;62.63
53635;BME280;39542;-34.932;138.594;2023-09-19T00:10:35;100615.57;;;19.74;62.63
53635;BME280;39542;-34.932;138.594;2023-09-19T00:11:10;100616.07;;;19.74;62.66
53635;BME280;39542;-34.932;138.594;2023-09-19T00:11:44;100616.61;;;19.74;62.71
53635;BME280;39542;-34.932;138.594;2023-09-19T00:12:18;100613.98;;;19.73;62.74
53635;BME280;39542;-34.932;138.594;2023-09-19T00:12:53;100612.66;;;19.73;62.74
53635;BME280;39542;-34.932;138.594;2023-09-19T00:13:28;100612.86;;;19.73;62.77
53635;BME280;39542;-34.932;138.594;2023-09-19T00:14:02;100609.67;;;19.73;62.79
53635;BME280;39542;-34.932;138.594;2023-09-19T00:14:36;100609.07;;;19.72;62.87
53635;BME280;39542;-34.932;138.594;2023-09-19T00:15:12;100606.55;;;19.73;62.84
53635;BME280;39542;-34.932;138.594;2023-09-19T00:15:48;100604.57;;;19.72;62.84
53635;BME280;39542;-34.932;138.594;2023-09-19T00:16:22;100605.16;;;19.73;62.76
53635;BME280;39542;-34.932;138.594;2023-09-19T00:16:57;100605.24;;;19.73;62.82
53635;BME280;39542;-34.932;138.594;2023-09-19T00:17:31;100605.67;;;19.72;62.84
53635;BME280;39542;-34.932;138.594;2023-09-19T00:18:06;100604.73;;;19.72;62.89
53635;BME280;39542;-34.932;138.594;2023-09-19T00:18:41;100601.04;;;19.72;62.85
53635;BME280;39542;-34.932;138.594;2023-09-19T00:19:15;100600.87;;;19.73;62.84
53635;BME280;39542;-34.932;138.594;2023-09-19T00:19:49;100604.91;;;19.73;62.84
53635;BME280;39542;-34.932;138.594;2023-09-19T00:20:24;100606.24;;;19.73;62.79
53635;BME280;39542;-34.932;138.594;2023-09-19T00:20:59;100605.27;;;19.74;62.81
53635;BME280;39542;-34.932;138.594;2023-09-19T00:21:34;100607.99;;;19.75;62.79
53635;BME280;39542;-34.932;138.594;2023-09-19T00:22:08;100608.07;;;19.75;62.79
53635;BME280;39542;-34.932;138.594;2023-09-19T00:22:43;100605.58;;;19.74;62.73
53635;BME280;39542;-34.932;138.594;2023-09-19T00:23:18;100601.16;;;19.74;62.80
53635;BME280;39542;-34.932;138.594;2023-09-19T00:23:53;100602.49;;;19.74;62.81
53635;BME280;39542;-34.932;138.594;2023-09-19T00:24:27;100603.32;;;19.74;62.76
53635;BME280;39542;-34.932;138.594;2023-09-19T00:25:01;100601.89;;;19.73;62.76
53635;BME280;39542;-34.932;138.594;2023-09-19T00:25:36;100599.13;;;19.73;62.79
53635;BME280;39542;-34.932;138.594;2023-09-19T00:26:10;100600.98;;;19.73;62.80
53635;BME280;39542;-34.932;138.594;2023-09-19T00:26:44;100600.25;;;19.74;62.80
53635;BME280;39542;-34.932;138.594;2023-09-19T00:27:19;100601.94;;;19.73;62.81
53635;BME280;39542;-34.932;138.594;2023-09-19T00:27:53;100602.95;;;19.73;62.82
53635;BME280;39542;-34.932;138.594;2023-09-19T00:28:28;100602.60;;;19.72;62.79
53635;BME280;39542;-34.932;138.594;2023-09-19T00:29:02;100600.39;;;19.72;62.84
53635;BME280;39542;-34.932;138.594;2023-09-19T00:29:37;100599.11;;;19.72;62.81
53635;BME280;39542;-34.932;138.594;2023-09-19T00:30:12;100598.26;;;19.71;62.86
53635;BME280;39542;-34.932;138.594;2023-09-19T00:30:47;100598.48;;;19.72;62.85
53635;BME280;39542;-34.932;138.594;2023-09-19T00:31:21;100598.33;;;19.72;62.84
53635;BME280;39542;-34.932;138.594;2023-09-19T00:31:55;100601.35;;;19.72;62.87
53635;BME280;39542;-34.932;138.594;2023-09-19T00:32:30;100606.73;;;19.73;62.84
53635;BME280;39542;-34.932;138.594;2023-09-19T00:33:05;100602.49;;;19.73;62.83
53635;BME280;39542;-34.932;138.594;2023-09-19T00:33:39;100603.46;;;19.72;62.83
53635;BME280;39542;-34.932;138.594;2023-09-19T00:34:14;100604.08;;;19.72;62.87
53635;BME280;39542;-34.932;138.594;2023-09-19T00:34:48;100603.27;;;19.72;62.85
53635;BME280;39542;-34.932;138.594;2023-09-19T00:35:23;100604.02;;;19.73;62.80
53635;BME280;39542;-34.932;138.594;2023-09-19T00:35:58;100607.42;;;19.74;62.79
53635;BME280;39542;-34.932;138.594;2023-09-19T00:36:33;100603.28;;;19.75;62.81
53635;BME280;39542;-34.932;138.594;2023-09-19T00:37:07;100602.91;;;19.75;62.77
53635;BME280;39542;-34.932;138.594;2023-09-19T00:37:42;100600.96;;;19.75;62.77
53635;BME280;39542;-34.932;138.594;2023-09-19T00:38:16;100603.44;;;19.75;62.75
53635;BME280;39542;-34.932;138.594;2023-09-19T00:38:50;100601.75;;;19.75;62.76
53635;BME280;39542;-34.932;138.594;2023-09-19T00:39:25;100599.31;;;19.74;62.82
53635;BME280;39542;-34.932;138.594;2023-09-19T00:39:59;100600.58;;;19.73;62.89
53635;BME280;39542;-34.932;138.594;2023-09-19T00:40:34;100598.53;;;19.73;62.86
53635;BME280;39542;-34.932;138.594;2023-09-19T00:41:09;100599.46;;;19.73;62.87
53635;BME280;39542;-34.932;138.594;2023-09-19T00:41:43;100595.67;;;19.73;62.87
53635;BME280;39542;-34.932;138.594;2023-09-19T00:42:20;100595.23;;;19.74;62.89
53635;BME280;39542;-34.932;138.594;2023-09-19T00:42:58;100592.77;;;19.74;62.87
53635;BME280;39542;-34.932;138.594;2023-09-19T00:43:33;100588.18;;;19.74;62.83
53635;BME280;39542;-34.932;138.594;2023-09-19T00:44:08;100581.47;;;19.72;62.83
53635;BME280;39542;-34.932;138.594;2023-09-19T00:44:42;100584.62;;;19.73;62.87
53635;BME280;39542;-34.932;138.594;2023-09-19T00:45:17;100583.34;;;19.73;62.94
53635;BME280;39542;-34.932;138.594;2023-09-19T00:45:53;100579.02;;;19.72;62.88
53635;BME280;39542;-34.932;138.594;2023-09-19T00:46:28;100572.91;;;19.73;62.86
53635;BME280;39542;-34.932;138.594;2023-09-19T00:47:02;100572.19;;;19.74;62.86
53635;BME280;39542;-34.932;138.594;2023-09-19T00:47:37;100568.58;;;19.73;62.84
53635;BME280;39542;-34.932;138.594;2023-09-19T00:48:12;100570.30;;;19.73;62.85
53635;BME280;39542;-34.932;138.594;2023-09-19T00:48:46;100572.75;;;19.73;62.84
53635;BME280;39542;-34.932;138.594;2023-09-19T00:49:21;100572.95;;;19.73;62.85
53635;BME280;39542;-34.932;138.594;2023-09-19T00:49:55;100573.66;;;19.72;62.85
53635;BME280;39542;-34.932;138.594;2023-09-19T00:50:29;100574.84;;;19.72;62.83
53635;BME280;39542;-34.932;138.594;2023-09-19T00:51:05;100572.07;;;19.72;62.81
53635;BME280;39542;-34.932;138.594;2023-09-19T00:51:39;100569.18;;;19.72;62.87
53635;BME280;39542;-34.932;138.594;2023-09-19T00:52:14;100567.89;;;19.72;62.84
53635;BME280;39542;-34.932;138.594;2023-09-19T00:52:50;100566.04;;;19.73;62.84
53635;BME280;39542;-34.932;138.594;2023-09-19T00:53:27;100567.82;;;19.73;62.85
53635;BME280;39542;-34.932;138.594;2023-09-19T00:54:01;100571.40;;;19.73;62.86
53635;BME280;39542;-34.932;138.594;2023-09-19T00:54:36;100572.79;;;19.74;62.86
53635;BME280;39542;-34.932;138.594;2023-09-19T00:55:11;100575.18;;;19.74;62.83
53635;BME280;39542;-34.932;138.594;2023-09-19T00:55:47;100575.48;;;19.74;62.79
53635;BME280;39542;-34.932;138.594;2023-09-19T00:56:22;100573.16;;;19.74;62.84
53635;BME280;39542;-34.932;138.594;2023-09-19T00:56:56;100569.99;;;19.74;62.84
53635;BME280;39542;-34.932;138.594;2023-09-19T00:57:31;100572.74;;;19.75;62.84
53635;BME280;39542;-34.932;138.594;2023-09-19T00:58:06;100577.82;;;19.75;62.85
53635;BME280;39542;-34.932;138.594;2023-09-19T00:58:40;100582.26;;;19.75;62.84
53635;BME280;39542;-34.932;138.594;2023-09-19T00:59:14;100584.04;;;19.74;62.88
53635;BME280;39542;-34.932;138.594;2023-09-19T00:59:51;100585.94;;;19.74;62.85
53635;BME280;39542;-34.932;138.594;2023-09-19T01:00:28;100588.12;;;19.74;62.87
53635;BME280;39542;-34.932;138.594;2023-09-19T01:01:02;100587.60;;;19.74;62.90
53635;BME280;39542;-34.932;138.594;2023-09-19T01:01:38;100573.65;;;19.74;62.84
53635;BME280;39542;-34.932;138.594;2023-09-19T01:02:13;100569.74;;;19.75;62.87
53635;BME280;39542;-34.932;138.594;2023-09-19T01:02:48;100570.97;;;19.75;62.87
53635;BME280;39542;-34.932;138.594;2023-09-19T01:03:24;100573.26;;;19.75;62.83
53635;BME280;39542;-34.932;138.594;2023-09-19T01:03:58;100572.89;;;19.76;62.84
53635;BME280;39542;-34.932;138.594;2023-09-19T01:04:33;100566.75;;;19.75;62.81
53635;BME280;39542;-34.932;138.594;2023-09-19T01:05:08;100571.93;;;19.75;62.80
53635;BME280;39542;-34.932;138.594;2023-09-19T01:05:43;100577.52;;;19.75;62.80
53635;BME280;39542;-34.932;138.594;2023-09-19T01:06:18;100579.52;;;19.75;62.79
53635;BME280;39542;-34.932;138.594;2023-09-19T01:06:52;100576.28;;;19.75;62.79
53635;BME280;39542;-34.932;138.594;2023-09-19T01:07:26;100573.68;;;19.75;62.75
53635;BME280;39542;-34.932;138.594;2023-09-19T01:08:01;100572.45;;;19.76;62.79
53635;BME280;39542;-34.932;138.594;2023-09-19T01:08:35;100574.66;;;19.75;62.85
53635;BME280;39542;-34.932;138.594;2023-09-19T01:09:09;100574.04;;;19.74;62.79
53635;BME280;39542;-34.932;138.594;2023-09-19T01:09:44;100574.58;;;19.75;62.76
53635;BME280;39542;-34.932;138.594;2023-09-19T01:10:19;100570.72;;;19.74;62.73
53635;BME280;39542;-34.932;138.594;2023-09-19T01:10:59;100571.46;;;19.75;62.69
53635;BME280;39542;-34.932;138.594;2023-09-19T01:11:38;100572.46;;;19.74;62.70
53635;BME280;39542;-34.932;138.594;2023-09-19T01:12:18;100571.81;;;19.74;62.63
53635;BME280;39542;-34.932;138.594;2023-09-19T01:13:01;100567.77;;;19.75;62.67
53635;BME280;39542;-34.932;138.594;2023-09-19T01:13:48;100563.66;;;19.75;62.67
53635;BME280;39542;-34.932;138.594;2023-09-19T01:14:34;100561.88;;;19.75;62.65
53635;BME280;39542;-34.932;138.594;2023-09-19T01:15:19;100560.24;;;19.75;62.69
53635;BME280;39542;-34.932;138.594;2023-09-19T01:15:59;100558.82;;;19.76;62.69
53635;BME280;39542;-34.932;138.594;2023-09-19T01:16:45;100555.54;;;19.75;62.65
53635;BME280;39542;-34.932;138.594;2023-09-19T01:17:27;100553.50;;;19.76;62.71
53635;BME280;39542;-34.932;138.594;2023-09-19T01:18:14;100553.82;;;19.76;62.75
53635;BME280;39542;-34.932;138.594;2023-09-19T01:19:07;100552.81;;;19.76;62.75
53635;BME280;39542;-34.932;138.594;2023-09-19T01:20:16;100552.72;;;19.77;62.72
53635;BME280;39542;-34.932;138.594;2023-09-19T01:21:00;100556.50;;;19.76;62.76
53635;BME280;39542;-34.932;138.594;2023-09-19T01:21:44;100554.54;;;19.77;62.75
53635;BME280;39542;-34.932;138.594;2023-09-19T01:22:30;100552.91;;;19.77;62.71
53635;BME280;39542;-34.932;138.594;2023-09-19T01:23:15;100555.14;;;19.77;62.72
53635;BME280;39542;-34.932;138.594;2023-09-19T01:25:12;100551.09;;;19.77;62.76
53635;BME280;39542;-34.932;138.594;2023-09-19T01:26:10;100554.86;;;19.76;62.80
53635;BME280;39542;-34.932;138.594;2023-09-19T01:27:05;100553.14;;;19.76;62.73
53635;BME280;39542;-34.932;138.594;2023-09-19T01:28:02;100554.64;;;19.77;62.81
53635;BME280;39542;-34.932;138.594;2023-09-19T01:29:12;100551.55;;;19.77;62.79
53635;BME280;39542;-34.932;138.594;2023-09-19T01:29:49;100548.22;;;19.76;62.78
53635;BME280;39542;-34.932;138.594;2023-09-19T01:30:26;100550.38;;;19.77;62.76
53635;BME280;39542;-34.932;138.594;2023-09-19T01:31:05;100552.30;;;19.77;62.79
53635;BME280;39542;-34.932;138.594;2023-09-19T01:31:42;100550.12;;;19.76;62.85
53635;BME280;39542;-34.932;138.594;2023-09-19T01:32:19;100551.60;;;19.77;62.79
53635;BME280;39542;-34.932;138.594;2023-09-19T01:32:53;100549.08;;;19.76;62.82
53635;BME280;39542;-34.932;138.594;2023-09-19T01:33:28;100550.21;;;19.76;62.78
53635;BME280;39542;-34.932;138.594;2023-09-19T01:34:03;100549.00;;;19.76;62.80
53635;BME280;39542;-34.932;138.594;2023-09-19T01:34:55;100547.96;;;19.77;62.78
53635;BME280;39542;-34.932;138.594;2023-09-19T01:35:29;100544.44;;;19.79;62.75
53635;BME280;39542;-34.932;138.594;2023-09-19T01:36:04;100544.41;;;19.78;62.76
53635;BME280;39542;-34.932;138.594;2023-09-19T01:36:39;100542.96;;;19.79;62.75
53635;BME280;39542;-34.932;138.594;2023-09-19T01:37:14;100542.90;;;19.79;62.75
53635;BME280;39542;-34.932;138.594;2023-09-19T01:37:48;100541.66;;;19.79;62.80
53635;BME280;39542;-34.932;138.594;2023-09-19T01:38:22;100545.20;;;19.79;62.71
53635;BME280;39542;-34.932;138.594;2023-09-19T01:38:57;100543.90;;;19.80;62.72
53635;BME280;39542;-34.932;138.594;2023-09-19T01:39:32;100545.07;;;19.79;62.73
53635;BME280;39542;-34.932;138.594;2023-09-19T01:40:10;100547.70;;;19.79;62.73
53635;BME280;39542;-34.932;138.594;2023-09-19T01:40:50;100546.10;;;19.79;62.72
53635;BME280;39542;-34.932;138.594;2023-09-19T01:41:46;100543.22;;;19.79;62.68
53635;BME280;39542;-34.932;138.594;2023-09-19T01:42:31;100545.07;;;19.79;62.73
53635;BME280;39542;-34.932;138.594;2023-09-19T01:43:12;100545.12;;;19.79;62.76
53635;BME280;39542;-34.932;138.594;2023-09-19T01:43:52;100545.90;;;19.79;62.75
53635;BME280;39542;-34.932;138.594;2023-09-19T01:44:36;100541.64;;;19.78;62.74
53635;BME280;39542;-34.932;138.594;2023-09-19T01:45:17;100543.40;;;19.78;62.71
53635;BME280;39542;-34.932;138.594;2023-09-19T01:46:03;100541.68;;;19.78;62.68
53635;BME280;39542;-34.932;138.594;2023-09-19T01:46:41;100540.26;;;19.78;62.75
53635;BME280;39542;-34.932;138.594;2023-09-19T01:47:23;100539.95;;;19.78;62.75
53635;BME280;39542;-34.932;138.594;2023-09-19T01:48:17;100539.74;;;19.79;62.75
53635;BME280;39542;-34.932;138.594;2023-09-19T01:49:03;100538.05;;;19.79;62.72
53635;BME280;39542;-34.932;138.594;2023-09-19T01:49:48;100532.87;;;19.79;62.69
53635;BME280;39542;-34.932;138.594;2023-09-19T01:50:32;100533.26;;;19.79;62.68
53635;BME280;39542;-34.932;138.594;2023-09-19T01:51:09;100528.49;;;19.80;62.65
53635;BME280;39542;-34.932;138.594;2023-09-19T01:51:50;100527.34;;;19.81;62.64
53635;BME280;39542;-34.932;138.594;2023-09-19T01:52:30;100524.59;;;19.82;62.69
53635;BME280;39542;-34.932;138.594;2023-09-19T01:53:10;100526.46;;;19.83;62.63
53635;BME280;39542;-34.932;138.594;2023-09-19T01:53:55;100527.75;;;19.81;62.61
53635;BME280;39542;-34.932;138.594;2023-09-19T01:54:50;100529.48;;;19.82;62.66
53635;BME280;39542;-34.932;138.594;2023-09-19T01:55:27;100527.09;;;19.81;62.68
53635;BME280;39542;-34.932;138.594;2023-09-19T01:56:05;100525.89;;;19.81;62.69
53635;BME280;39542;-34.932;138.594;2023-09-19T01:56:47;100525.83;;;19.81;62.59
53635;BME280;39542;-34.932;138.594;2023-09-19T01:57:27;100519.80;;;19.80;62.61
53635;BME280;39542;-34.932;138.594;2023-09-19T01:58:08;100520.25;;;19.81;62.63
53635;BME280;39542;-34.932;138.594;2023-09-19T01:58:51;100521.34;;;19.80;62.61
53635;BME280;39542;-34.932;138.594;2023-09-19T01:59:31;100523.02;;;19.81;62.57
53635;BME280;39542;-34.932;138.594;2023-09-19T02:00:10;100520.87;;;19.79;62.59
53635;BME280;39542;-34.932;138.594;2023-09-19T02:00:46;100517.82;;;19.80;62.61
53635;BME280;39542;-34.932;138.594;2023-09-19T02:01:24;100513.64;;;19.80;62.71
53635;BME280;39542;-34.932;138.594;2023-09-19T02:01:59;100515.56;;;19.80;62.68
53635;BME280;39542;-34.932;138.594;2023-09-19T02:02:36;100513.53;;;19.81;62.61
53635;BME280;39542;-34.932;138.594;2023-09-19T02:03:13;100513.58;;;19.80;62.59
53635;BME280;39542;-34.932;138.594;2023-09-19T02:03:48;100516.89;;;19.80;62.62
53635;BME280;39542;-34.932;138.594;2023-09-19T02:04:22;100516.19;;;19.81;62.63
53635;BME280;39542;-34.932;138.594;2023-09-19T02:04:57;100519.20;;;19.81;62.64
53635;BME280;39542;-34.932;138.594;2023-09-19T02:05:32;100513.35;;;19.81;62.61
53635;BME280;39542;-34.932;138.594;2023-09-19T02:06:06;100513.22;;;19.81;62.58
53635;BME280;39542;-34.932;138.594;2023-09-19T02:06:42;100514.54;;;19.81;62.64
53635;BME280;39542;-34.932;138.594;2023-09-19T02:07:16;100508.40;;;19.82;62.61
53635;BME280;39542;-34.932;138.594;2023-09-19T02:07:52;100510.49;;;19.82;62.64
53635;BME280;39542;-34.932;138.594;2023-09-19T02:08:26;100514.44;;;19.82;62.61
53635;BME280;39542;-34.932;138.594;2023-09-19T02:09:00;100512.17;;;19.82;62.59
53635;BME280;39542;-34.932;138.594;2023-09-19T02:09:35;100512.04;;;19.82;62.60
53635;BME280;39542;-34.932;138.594;2023-09-19T02:10:09;100510.82;;;19.82;62.60
53635;BME280;39542;-34.932;138.594;2023-09-19T02:10:44;100507.78;;;19.82;62.64
53635;BME280;39542;-34.932;138.594;2023-09-19T02:11:18;100507.68;;;19.82;62.56
53635;BME280;39542;-34.932;138.594;2023-09-19T02:11:53;100508.35;;;19.81;62.58
53635;BME280;39542;-34.932;138.594;2023-09-19T02:12:27;100507.44;;;19.82;62.59
53635;BME280;39542;-34.932;138.594;2023-09-19T02:13:01;100505.25;;;19.82;62.54
53635;BME280;39542;-34.932;138.594;2023-09-19T02:13:36;100504.65;;;19.82;62.56
53635;BME280;39542;-34.932;138.594;2023-09-19T02:14:10;100500.18;;;19.83;62.54
53635;BME280;39542;-34.932;138.594;2023-09-19T02:14:45;100496.28;;;19.82;62.48
53635;BME280;39542;-34.932;138.594;2023-09-19T02:15:20;100499.37;;;19.82;62.53
53635;BME280;39542;-34.932;138.594;2023-09-19T02:15:54;100496.62;;;19.81;62.53
53635;BME280;39542;-34.932;138.594;2023-09-19T02:16:29;100500.26;;;19.82;62.51
53635;BME280;39542;-34.932;138.594;2023-09-19T02:17:03;100495.75;;;19.82;62.53
53635;BME280;39542;-34.932;138.594;2023-09-19T02:17:38;100495.39;;;19.83;62.53
53635;BME280;39542;-34.932;138.594;2023-09-19T02:18:12;100492.29;;;19.84;62.51
53635;BME280;39542;-34.932;138.594;2023-09-19T02:18:47;100492.76;;;19.85;62.51
53635;BME280;39542;-34.932;138.594;2023-09-19T02:19:21;100491.87;;;19.85;62.52
53635;BME280;39542;-34.932;138.594;2023-09-19T02:19:56;100491.12;;;19.86;62.51
53635;BME280;39542;-34.932;138.594;2023-09-19T02:20:30;100488.05;;;19.84;62.51
53635;BME280;39542;-34.932;138.594;2023-09-19T02:21:05;100487.37;;;19.85;62.52
53635;BME280;39542;-34.932;138.594;2023-09-19T02:21:39;100486.46;;;19.85;62.49
53635;BME280;39542;-34.932;138.594;2023-09-19T02:22:13;100488.70;;;19.85;62.49
53635;BME280;39542;-34.932;138.594;2023-09-19T02:22:48;100490.45;;;19.85;62.50
53635;BME280;39542;-34.932;138.594;2023-09-19T02:23:22;100490.52;;;19.85;62.48
53635;BME280;39542;-34.932;138.594;2023-09-19T02:23:57;100488.37;;;19.85;62.51
53635;BME280;39542;-34.932;138.594;2023-09-19T02:24:31;100488.16;;;19.85;62.51
53635;BME280;39542;-34.932;138.594;2023-09-19T02:25:06;100488.91;;;19.84;62.55
53635;BME280;39542;-34.932;138.594;2023-09-19T02:25:41;100489.92;;;19.85;62.47
53635;BME280;39542;-34.932;138.594;2023-09-19T02:26:15;100491.07;;;19.85;62.51
53635;BME280;39542;-34.932;138.594;2023-09-19T02:26:50;100490.50;;;19.85;62.53
53635;BME280;39542;-34.932;138.594;2023-09-19T02:27:25;100491.09;;;19.85;62.55
53635;BME280;39542;-34.932;138.594;2023-09-19T02:27:59;100491.83;;;19.85;62.47
53635;BME280;39542;-34.932;138.594;2023-09-19T02:28:34;100489.01;;;19.85;62.51
53635;BME280;39542;-34.932;138.594;2023-09-19T02:29:08;100490.88;;;19.86;62.44
53635;BME280;39542;-34.932;138.594;2023-09-19T02:29:43;100490.11;;;19.86;62.48
53635;BME280;39542;-34.932;138.594;2023-09-19T02:30:17;100492.13;;;19.85;62.48
53635;BME280;39542;-34.932;138.594;2023-09-19T02:30:51;100490.60;;;19.86;62.46
53635;BME280;39542;-34.932;138.594;2023-09-19T02:31:26;100489.09;;;19.85;62.48
53635;BME280;39542;-34.932;138.594;2023-09-19T02:32:00;100486.15;;;19.86;62.47
53635;BME280;39542;-34.932;138.594;2023-09-19T02:32:34;100488.21;;;19.85;62.48
53635;BME280;39542;-34.932;138.594;2023-09-19T02:33:08;100484.59;;;19.85;62.52
53635;BME280;39542;-34.932;138.594;2023-09-19T02:33:43;100484.43;;;19.85;62.51
53635;BME280;39542;-34.932;138.594;2023-09-19T02:34:17;100490.05;;;19.85;62.51
53635;BME280;39542;-34.932;138.594;2023-09-19T02:34:52;100487.82;;;19.85;62.49
53635;BME280;39542;-34.932;138.594;2023-09-19T02:35:26;100491.59;;;19.85;62.50
53635;BME280;39542;-34.932;138.594;2023-09-19T02:36:01;100486.20;;;19.85;62.50
53635;BME280;39542;-34.932;138.594;2023-09-19T02:36:36;100489.80;;;19.85;62.53
53635;BME280;39542;-34.932;138.594;2023-09-19T02:37:10;100487.17;;;19.85;62.51
53635;BME280;39542;-34.932;138.594;2023-09-19T02:37:45;100485.94;;;19.85;62.49
53635;BME280;39542;-34.932;138.594;2023-09-19T02:38:19;100485.19;;;19.86;62.49
53635;BME280;39542;-34.932;138.594;2023-09-19T02:38:54;100484.59;;;19.86;62.47
53635;BME280;39542;-34.932;138.594;2023-09-19T02:39:28;100486.10;;;19.86;62.47
53635;BME280;39542;-34.932;138.594;2023-09-19T02:40:02;100483.91;;;19.85;62.46
53635;BME280;39542;-34.932;138.594;2023-09-19T02:40:37;100490.63;;;19.87;62.51
53635;BME280;39542;-34.932;138.594;2023-09-19T02:41:11;100489.54;;;19.86;62.48
53635;BME280;39542;-34.932;138.594;2023-09-19T02:41:46;100485.89;;;19.87;62.46
53635;BME280;39542;-34.932;138.594;2023-09-19T02:42:20;100481.42;;;19.87;62.40
53635;BME280;39542;-34.932;138.594;2023-09-19T02:42:55;100485.97;;;19.87;62.44
53635;BME280;39542;-34.932;138.594;2023-09-19T02:43:30;100489.19;;;19.88;62.41
53635;BME280;39542;-34.932;138.594;2023-09-19T02:44:04;100488.49;;;19.87;62.40
53635;BME280;39542;-34.932;138.594;2023-09-19T02:44:39;100488.55;;;19.87;62.42
53635;BME280;39542;-34.932;138.594;2023-09-19T02:45:13;100486.43;;;19.87;62.37
53635;BME280;39542;-34.932;138.594;2023-09-19T02:45:48;100486.52;;;19.87;62.38
53635;BME280;39542;-34.932;138.594;2023-09-19T02:46:22;100486.64;;;19.87;62.32
53635;BME280;39542;-34.932;138.594;2023-09-19T02:46:56;100488.34;;;19.88;62.34
53635;BME280;39542;-34.932;138.594;2023-09-19T02:47:30;100487.55;;;19.89;62.37
53635;BME280;39542;-34.932;138.594;2023-09-19T02:48:05;100487.83;;;19.90;62.36
53635;BME280;39542;-34.932;138.594;2023-09-19T02:48:39;100486.70;;;19.90;62.31
53635;BME280;39542;-34.932;138.594;2023-09-19T02:49:14;100486.30;;;19.91;62.36
53635;BME280;39542;-34.932;138.594;2023-09-19T02:49:48;100487.55;;;19.91;62.28
53635;BME280;39542;-34.932;138.594;2023-09-19T02:50:22;100492.00;;;19.91;62.31
53635;BME280;39542;-34.932;138.594;2023-09-19T02:50:56;100496.31;;;19.89;62.32
53635;BME280;39542;-34.932;138.594;2023-09-19T02:51:31;100495.18;;;19.89;62.32
53635;BME280;39542;-34.932;138.594;2023-09-19T02:52:05;100494.91;;;19.89;62.33
53635;BME280;39542;-34.932;138.594;2023-09-19T02:52:41;100492.68;;;19.89;62.29
53635;BME280;39542;-34.932;138.594;2023-09-19T02:53:16;100499.04;;;19.91;62.31
53635;BME280;39542;-34.932;138.594;2023-09-19T02:53:51;100500.42;;;19.91;62.31
53635;BME280;39542;-34.932;138.594;2023-09-19T02:54:25;100498.05;;;19.91;62.27
53635;BME280;39542;-34.932;138.594;2023-09-19T02:54:59;100503.67;;;19.90;62.24
53635;BME280;39542;-34.932;138.594;2023-09-19T02:55:34;100506.49;;;19.90;62.23
53635;BME280;39542;-34.932;138.594;2023-09-19T02:56:08;100502.50;;;19.90;62.28
53635;BME280;39542;-34.932;138.594;2023-09-19T02:56:43;100504.77;;;19.90;62.22
53635;BME280;39542;-34.932;138.594;2023-09-19T02:57:18;100506.27;;;19.91;62.26
53635;BME280;39542;-34.932;138.594;2023-09-19T02:57:53;100504.25;;;19.92;62.23
53635;BME280;39542;-34.932;138.594;2023-09-19T02:58:28;100504.17;;;19.93;62.19
53635;BME280;39542;-34.932;138.594;2023-09-19T02:59:02;100497.79;;;19.93;62.17
53635;BME280;39542;-34.932;138.594;2023-09-19T02:59:36;100498.31;;;19.93;62.11
53635;BME280;39542;-34.932;138.594;2023-09-19T03:00:12;100503.47;;;19.93;62.15
53635;BME280;39542;-34.932;138.594;2023-09-19T03:00:46;100505.24;;;19.92;62.12
53635;BME280;39542;-34.932;138.594;2023-09-19T03:01:21;100504.35;;;19.92;62.16
53635;BME280;39542;-34.932;138.594;2023-09-19T03:01:55;100498.65;;;19.92;62.18
53635;BME280;39542;-34.932;138.594;2023-09-19T03:02:29;100498.61;;;19.91;62.16
53635;BME280;39542;-34.932;138.594;2023-09-19T03:03:04;100498.29;;;19.92;62.14
53635;BME280;39542;-34.932;138.594;2023-09-19T03:03:38;100503.38;;;19.94;62.24
53635;BME280;39542;-34.932;138.594;2023-09-19T03:04:12;100501.61;;;19.93;62.16
53635;BME280;39542;-34.932;138.594;2023-09-19T03:04:46;100497.76;;;19.93;62.16